createdAt,value
2023-03-20T00:01:34.813Z,16.30
2023-03-20T00:04:08.220Z,14.32
2023-03-20T00:06:41.511Z,16.60
2023-03-20T00:09:14.843Z,14.82
2023-03-20T00:11:51.074Z,16.10
2023-03-20T00:14:25.272Z,19.02
2023-03-20T00:17:00.259Z,17.83
2023-03-20T00:19:33.589Z,15.00
2023-03-20T00:22:06.884Z,15.55
2023-03-20T00:24:40.529Z,15.73
2023-03-20T00:27:16.186Z,16.13
2023-03-20T00:29:49.541Z,14.43
2023-03-20T00:32:24.259Z,16.63
2023-03-20T00:34:57.605Z,16.25
2023-03-20T00:37:30.899Z,14.63
2023-03-20T00:40:04.501Z,16.05
2023-03-20T00:42:38.368Z,17.33
2023-03-20T00:45:16.076Z,20.38
2023-03-20T00:47:52.945Z,14.77
2023-03-20T00:50:29.651Z,16.40
2023-03-20T00:53:04.600Z,16.45
2023-03-20T00:55:40.661Z,17.08
2023-03-20T00:58:14.430Z,14.02
2023-03-20T01:03:24.573Z,16.15
2023-03-20T01:05:58.711Z,16.17
2023-03-20T01:08:32.044Z,15.43
2023-03-20T01:11:05.860Z,15.20
2023-03-20T01:13:41.404Z,15.35
2023-03-20T01:16:22.820Z,18.92
2023-03-20T01:18:57.849Z,17.17
2023-03-20T01:21:31.349Z,17.92
2023-03-20T01:24:05.534Z,16.90
2023-03-20T01:26:40.255Z,18.23
2023-03-20T01:29:21.508Z,17.08
2023-03-20T01:31:55.859Z,18.70
2023-03-20T01:34:33.077Z,15.65
2023-03-20T01:37:13.626Z,17.40
2023-03-20T01:39:47.182Z,17.55
2023-03-20T01:42:21.078Z,17.58
2023-03-20T01:44:55.558Z,16.98
2023-03-20T01:47:30.321Z,14.55
2023-03-20T01:50:31.007Z,16.40
2023-03-20T01:53:17.637Z,16.27
2023-03-20T01:55:59.310Z,18.85
2023-03-20T01:58:45.164Z,16.73
2023-03-20T02:01:19.045Z,16.77
2023-03-20T02:03:53.946Z,13.48
2023-03-20T02:06:41.822Z,16.15
2023-03-20T02:09:22.720Z,17.45
2023-03-20T02:11:58.364Z,19.80
2023-03-20T02:14:33.812Z,14.82
2023-03-20T02:17:17.222Z,16.77
2023-03-20T02:20:04.206Z,16.25
2023-03-20T02:23:14.232Z,16.27
2023-03-20T02:26:11.454Z,14.75
2023-03-20T02:29:25.600Z,16.42
2023-03-20T02:32:26.495Z,13.68
2023-03-20T02:35:33.954Z,14.27
2023-03-20T02:38:31.889Z,19.60
2023-03-20T02:41:12.401Z,17.30
2023-03-20T02:43:52.646Z,18.50
2023-03-20T02:46:36.356Z,14.93
2023-03-20T02:49:27.114Z,13.13
2023-03-20T02:52:05.376Z,15.85
2023-03-20T02:54:45.169Z,13.90
2023-03-20T02:57:22.037Z,14.15
2023-03-20T02:59:59.681Z,17.15
2023-03-20T03:02:35.902Z,15.30
2023-03-20T03:05:14.936Z,14.00
2023-03-20T03:07:51.824Z,10.73
2023-03-20T03:10:31.475Z,12.13
2023-03-20T03:13:07.992Z,19.00
2023-03-20T03:15:44.010Z,10.88
2023-03-20T03:18:20.826Z,19.15
2023-03-20T03:21:00.688Z,14.13
2023-03-20T03:23:43.154Z,10.63
2023-03-20T03:26:22.331Z,10.95
2023-03-20T03:29:01.583Z,12.55
2023-03-20T03:31:35.813Z,14.55
2023-03-20T03:34:15.053Z,12.70
2023-03-20T03:36:55.905Z,15.43
2023-03-20T03:39:38.721Z,12.93
2023-03-20T03:42:21.799Z,13.45
2023-03-20T03:45:00.506Z,14.18
2023-03-20T03:47:38.930Z,14.88
2023-03-20T03:50:17.202Z,13.70
2023-03-20T03:52:52.563Z,13.13
2023-03-20T03:55:29.119Z,13.10
2023-03-20T03:58:14.813Z,12.63
2023-03-20T04:00:52.019Z,12.80
2023-03-20T04:03:30.045Z,12.27
2023-03-20T04:06:06.581Z,13.20
2023-03-20T04:08:42.178Z,12.63
2023-03-20T04:11:17.694Z,10.57
2023-03-20T04:13:53.930Z,12.48
2023-03-20T04:16:28.253Z,12.90
2023-03-20T04:19:01.671Z,12.90
2023-03-20T04:21:35.249Z,12.13
2023-03-20T04:24:09.291Z,14.05
2023-03-20T04:26:43.324Z,15.40
2023-03-20T04:29:18.389Z,11.85
2023-03-20T04:32:07.985Z,13.13
2023-03-20T04:35:04.122Z,12.23
2023-03-20T04:37:53.815Z,11.23
2023-03-20T04:40:27.181Z,11.52
2023-03-20T04:43:00.552Z,15.55
2023-03-20T04:45:35.748Z,13.25
2023-03-20T04:48:10.021Z,12.95
2023-03-20T04:50:46.654Z,14.75
2023-03-20T04:53:20.544Z,11.30
2023-03-20T04:55:57.667Z,12.73
2023-03-20T04:58:32.104Z,12.32
2023-03-20T05:01:07.239Z,13.88
2023-03-20T05:03:40.701Z,12.68
2023-03-20T05:06:14.107Z,9.68
2023-03-20T05:08:49.775Z,15.57
2023-03-20T05:11:24.797Z,13.02
2023-03-20T05:14:16.272Z,13.77
2023-03-20T05:17:09.488Z,14.88
2023-03-20T05:20:12.405Z,13.82
2023-03-20T05:23:08.581Z,13.27
2023-03-20T05:26:17.004Z,15.55
2023-03-20T05:29:19.533Z,15.63
2023-03-20T05:32:13.686Z,16.02
2023-03-20T05:35:09.103Z,13.52
2023-03-20T05:38:08.281Z,17.20
2023-03-20T05:41:04.485Z,16.05
2023-03-20T05:44:07.186Z,13.45
2023-03-20T05:47:04.324Z,16.25
2023-03-20T05:49:57.562Z,11.82
2023-03-20T05:52:42.978Z,14.13
2023-03-20T05:55:28.913Z,11.98
2023-03-20T05:58:22.478Z,15.32
2023-03-20T06:01:09.298Z,18.77
2023-03-20T06:04:02.066Z,15.68
2023-03-20T06:07:09.417Z,16.05
2023-03-20T06:09:44.781Z,17.15
2023-03-20T06:12:20.153Z,17.38
2023-03-20T06:14:53.713Z,18.05
2023-03-20T06:17:28.452Z,17.70
2023-03-20T06:20:09.845Z,18.45
2023-03-20T06:22:44.883Z,18.85
2023-03-20T06:25:18.703Z,22.58
2023-03-20T06:30:26.080Z,22.02
2023-03-20T06:33:00.629Z,30.80
2023-03-20T06:35:43.048Z,32.05
2023-03-20T06:38:17.868Z,29.00
2023-03-20T06:40:51.281Z,27.23
2023-03-20T06:45:59.264Z,29.55
2023-03-20T06:48:35.025Z,29.88
2023-03-20T06:51:11.809Z,29.90
2023-03-20T06:53:56.665Z,25.23
2023-03-20T06:56:33.440Z,33.22
2023-03-20T06:59:06.753Z,33.47
2023-03-20T07:01:40.809Z,33.67
2023-03-20T07:04:14.758Z,28.95
2023-03-20T07:06:54.387Z,33.63
2023-03-20T07:09:29.927Z,29.20
2023-03-20T07:12:04.656Z,34.25
2023-03-20T07:14:40.006Z,32.25
2023-03-20T07:17:18.156Z,29.50
2023-03-20T07:19:51.713Z,30.85
2023-03-20T07:22:27.495Z,26.00
2023-03-20T07:25:16.145Z,31.92
2023-03-20T07:27:50.888Z,27.88
2023-03-20T07:30:27.887Z,29.40
2023-03-20T07:33:01.828Z,26.23
2023-03-20T07:35:39.629Z,29.48
2023-03-20T07:38:13.920Z,28.13
2023-03-20T07:40:59.464Z,27.83
2023-03-20T07:43:32.972Z,30.67
2023-03-20T07:46:08.348Z,26.27
2023-03-20T07:48:44.208Z,30.90
2023-03-20T07:51:17.709Z,22.52
2023-03-20T07:53:51.157Z,22.48
2023-03-20T07:56:25.978Z,21.88
2023-03-20T07:58:59.295Z,28.50
2023-03-20T08:01:32.675Z,32.00
2023-03-20T08:04:06.951Z,27.70
2023-03-20T08:06:40.546Z,26.27
2023-03-20T08:11:48.762Z,25.17
2023-03-20T08:14:22.153Z,27.40
2023-03-20T08:17:12.412Z,23.98
2023-03-20T08:19:47.920Z,21.27
2023-03-20T08:22:21.635Z,23.73
2023-03-20T08:24:55.017Z,21.85
2023-03-20T08:27:29.702Z,20.88
2023-03-20T08:30:02.952Z,27.50
2023-03-20T08:32:36.550Z,23.30
2023-03-20T08:35:25.720Z,30.60
2023-03-20T08:38:03.636Z,28.42
2023-03-20T08:43:11.910Z,19.55
2023-03-20T08:45:46.130Z,18.83
2023-03-20T08:48:19.481Z,17.05
2023-03-20T08:50:52.890Z,18.95
2023-03-20T08:53:27.519Z,21.55
2023-03-20T08:56:01.834Z,20.17
2023-03-20T08:58:36.557Z,16.95
2023-03-20T09:01:11.401Z,18.40
2023-03-20T09:03:44.775Z,17.83
2023-03-20T09:06:18.176Z,21.02
2023-03-20T09:08:51.487Z,18.70
2023-03-20T09:11:24.795Z,18.48
2023-03-20T09:14:00.375Z,20.70
2023-03-20T09:16:33.889Z,19.17
2023-03-20T09:21:40.878Z,23.70
2023-03-20T09:24:14.245Z,21.45
2023-03-20T09:26:47.657Z,19.05
2023-03-20T09:29:22.349Z,20.88
2023-03-20T09:31:55.842Z,26.58
2023-03-20T09:34:29.441Z,20.10
2023-03-20T09:37:03.434Z,23.58
2023-03-20T09:39:36.815Z,18.40
2023-03-20T09:42:22.522Z,21.67
2023-03-20T09:45:06.903Z,22.20
2023-03-20T09:47:47.453Z,20.25
2023-03-20T09:50:30.178Z,22.67
2023-03-20T09:53:07.750Z,16.88
2023-03-20T09:55:43.005Z,19.42
2023-03-20T09:58:22.595Z,19.00
2023-03-20T10:01:01.080Z,22.10
2023-03-20T10:03:43.700Z,16.17
2023-03-20T10:06:18.482Z,16.95
2023-03-20T10:08:52.081Z,18.48
2023-03-20T10:11:52.548Z,21.52
2023-03-20T10:14:34.955Z,15.63
2023-03-20T10:17:36.060Z,21.73
2023-03-20T10:20:14.989Z,18.10
2023-03-20T10:22:53.114Z,15.13
2023-03-20T10:25:32.295Z,16.55
2023-03-20T10:28:12.909Z,17.70
2023-03-20T10:31:01.520Z,14.45
2023-03-20T10:33:47.124Z,16.98
2023-03-20T10:36:40.258Z,17.27
2023-03-20T10:39:22.020Z,21.95
2023-03-20T10:41:58.199Z,18.42
2023-03-20T10:44:37.730Z,18.70
2023-03-20T10:47:15.301Z,20.50
2023-03-20T10:49:53.301Z,21.33
2023-03-20T10:52:30.281Z,20.10
2023-03-20T10:55:09.014Z,19.35
2023-03-20T10:57:48.361Z,20.75
2023-03-20T11:00:24.645Z,19.65
2023-03-20T11:02:58.036Z,22.15
2023-03-20T11:05:34.893Z,20.50
2023-03-20T11:08:10.051Z,18.42
2023-03-20T11:10:44.664Z,19.88
2023-03-20T11:13:26.635Z,20.40
2023-03-20T11:16:17.980Z,21.13
2023-03-20T11:18:52.456Z,21.00
2023-03-20T11:21:29.807Z,22.77
2023-03-20T11:24:03.876Z,19.40
2023-03-20T11:26:39.813Z,17.58
2023-03-20T11:29:50.734Z,17.15
2023-03-20T11:32:31.925Z,17.50
2023-03-20T11:35:13.580Z,18.02
2023-03-20T11:37:50.633Z,17.42
2023-03-20T11:40:25.977Z,14.57
2023-03-20T11:43:05.421Z,14.18
2023-03-20T11:45:41.079Z,16.17
2023-03-20T11:48:20.898Z,18.00
2023-03-20T11:51:02.183Z,13.73
2023-03-20T11:53:40.635Z,16.40
2023-03-20T11:56:16.322Z,14.98
2023-03-20T11:58:57.170Z,13.15
2023-03-20T12:01:38.988Z,14.15
2023-03-20T12:04:16.204Z,12.45
2023-03-20T12:06:55.040Z,20.83
2023-03-20T12:09:44.159Z,14.00
2023-03-20T12:12:26.259Z,12.77
2023-03-20T12:15:07.713Z,13.38
2023-03-20T12:17:47.345Z,11.95
2023-03-20T12:20:33.611Z,13.77
2023-03-20T12:23:14.250Z,11.60
2023-03-20T12:25:56.232Z,9.30
2023-03-20T12:28:37.320Z,15.60
2023-03-20T12:31:20.910Z,9.80
2023-03-20T12:33:58.663Z,11.38
2023-03-20T12:36:34.769Z,12.55
2023-03-20T12:39:15.019Z,9.00
2023-03-20T12:42:04.740Z,8.98
2023-03-20T12:44:42.796Z,11.40
2023-03-20T12:47:28.663Z,9.18
2023-03-20T12:50:11.699Z,10.65
2023-03-20T12:52:54.052Z,12.10
2023-03-20T12:55:43.564Z,10.65
2023-03-20T12:58:27.511Z,9.15
2023-03-20T13:01:05.837Z,10.20
2023-03-20T13:03:59.285Z,8.43
2023-03-20T13:06:48.958Z,7.38
2023-03-20T13:09:51.349Z,7.30
2023-03-20T13:12:36.207Z,10.48
2023-03-20T13:15:22.980Z,9.43
2023-03-20T13:18:02.722Z,14.02
2023-03-20T13:20:41.152Z,10.13
2023-03-20T13:23:23.286Z,12.77
2023-03-20T13:26:14.042Z,14.20
2023-03-20T13:28:56.927Z,13.30
2023-03-20T13:31:49.372Z,12.75
2023-03-20T13:34:32.841Z,13.13
2023-03-20T13:37:24.213Z,11.82
2023-03-20T13:40:05.935Z,12.95
2023-03-20T13:42:45.826Z,14.77
2023-03-20T13:45:31.944Z,12.73
2023-03-20T13:48:24.954Z,13.85
2023-03-20T13:51:08.978Z,18.67
2023-03-20T13:56:32.483Z,16.40
2023-03-20T13:59:20.306Z,14.02
2023-03-20T14:02:00.986Z,14.98
2023-03-20T14:04:36.958Z,13.57
2023-03-20T14:07:28.909Z,16.27
2023-03-20T14:10:36.777Z,13.27
2023-03-20T14:13:18.710Z,12.98
2023-03-20T14:15:57.955Z,14.32
2023-03-20T14:18:32.779Z,10.32
2023-03-20T14:21:14.909Z,11.77
2023-03-20T14:23:51.564Z,14.75
2023-03-20T14:26:28.559Z,9.90
2023-03-20T14:29:20.457Z,16.92
2023-03-20T14:32:03.766Z,17.88
2023-03-20T14:34:48.494Z,12.40
2023-03-20T14:37:36.475Z,17.42
2023-03-20T14:40:18.230Z,14.85
2023-03-20T14:42:56.861Z,18.73
2023-03-20T14:45:41.866Z,13.13
2023-03-20T14:48:27.451Z,14.77
2023-03-20T14:51:15.955Z,19.00
2023-03-20T14:53:57.011Z,18.58
2023-03-20T14:56:33.805Z,19.98
2023-03-20T14:59:10.993Z,16.40
2023-03-20T15:01:50.107Z,15.82
2023-03-20T15:04:30.021Z,20.10
2023-03-20T15:07:07.113Z,20.92
2023-03-20T15:09:48.001Z,14.15
2023-03-20T15:12:24.244Z,15.48
2023-03-20T15:14:59.489Z,12.93
2023-03-20T15:17:37.907Z,13.93
2023-03-20T15:20:17.978Z,14.45
2023-03-20T15:22:52.644Z,16.80
2023-03-20T15:25:33.712Z,15.27
2023-03-20T15:28:08.397Z,13.73
2023-03-20T15:30:42.820Z,11.18
2023-03-20T15:33:20.160Z,12.98
2023-03-20T15:35:53.793Z,14.00
2023-03-20T15:38:34.259Z,16.25
2023-03-20T15:41:23.628Z,12.07
2023-03-20T15:44:05.508Z,18.13
2023-03-20T15:46:38.814Z,10.88
2023-03-20T15:49:18.504Z,31.48
2023-03-20T15:51:53.368Z,11.95
2023-03-20T15:54:26.942Z,11.00
2023-03-20T15:57:03.135Z,13.95
2023-03-20T15:59:36.668Z,7.72
2023-03-20T16:02:12.707Z,9.18
2023-03-20T16:04:49.116Z,14.65
2023-03-20T16:07:27.509Z,11.18
2023-03-20T16:10:01.689Z,14.70
2023-03-20T16:12:36.447Z,11.93
2023-03-20T16:15:15.451Z,13.43
2023-03-20T16:17:59.205Z,13.85
2023-03-20T16:20:37.809Z,13.73
2023-03-20T16:23:11.998Z,11.55
2023-03-20T16:25:45.648Z,11.45
2023-03-20T16:28:20.711Z,14.13
2023-03-20T16:30:54.610Z,14.07
2023-03-20T16:33:28.192Z,11.38
2023-03-20T16:36:02.714Z,10.80
2023-03-20T16:38:37.897Z,7.95
2023-03-20T16:41:24.835Z,8.38
2023-03-20T16:43:59.607Z,11.43
2023-03-20T16:46:33.155Z,9.48
2023-03-20T16:49:50.842Z,12.98
2023-03-20T16:52:28.344Z,8.93
2023-03-20T16:55:02.116Z,9.45
2023-03-20T17:00:23.671Z,14.68
2023-03-20T17:03:06.561Z,7.70
2023-03-20T17:05:52.868Z,9.52
2023-03-20T17:08:32.754Z,9.43
2023-03-20T17:11:12.215Z,17.30
2023-03-20T17:13:45.534Z,9.23
2023-03-20T17:16:22.763Z,13.73
2023-03-20T17:19:01.621Z,11.25
2023-03-20T17:21:35.663Z,19.02
2023-03-20T17:24:13.932Z,15.90
2023-03-20T17:26:53.375Z,11.40
2023-03-20T17:29:26.738Z,14.93
2023-03-20T17:32:01.516Z,9.38
2023-03-20T17:34:35.072Z,17.23
2023-03-20T17:37:12.602Z,12.32
2023-03-20T17:39:46.058Z,13.77
2023-03-20T17:42:22.335Z,13.63
2023-03-20T17:44:55.697Z,14.55
2023-03-20T17:47:31.782Z,14.40
2023-03-20T17:50:06.213Z,13.35
2023-03-20T17:52:39.546Z,13.85
2023-03-20T17:55:13.116Z,12.65
2023-03-20T17:57:46.567Z,17.92
2023-03-20T18:00:22.600Z,16.25
2023-03-20T18:02:57.331Z,11.40
2023-03-20T18:05:32.206Z,10.55
2023-03-20T18:08:05.620Z,14.50
2023-03-20T18:10:39.226Z,14.30
2023-03-20T18:15:47.554Z,18.45
2023-03-20T18:18:24.049Z,14.07
2023-03-20T18:20:59.447Z,15.93
2023-03-20T18:23:32.919Z,13.27
2023-03-20T18:26:14.259Z,11.70
2023-03-20T18:28:48.120Z,13.50
2023-03-20T18:31:22.209Z,22.60
2023-03-20T18:33:57.181Z,13.82
2023-03-20T18:36:30.929Z,13.55
2023-03-20T18:39:06.638Z,14.05
2023-03-20T18:41:39.995Z,12.95
2023-03-20T18:44:13.948Z,12.00
2023-03-20T18:46:48.418Z,13.43
2023-03-20T18:49:23.209Z,14.65
2023-03-20T18:51:56.775Z,12.00
2023-03-20T18:54:30.101Z,9.23
2023-03-20T18:57:03.463Z,12.68
2023-03-20T18:59:36.802Z,11.57
2023-03-20T19:02:13.327Z,13.20
2023-03-20T19:04:50.648Z,19.33
2023-03-20T19:07:23.978Z,11.60
2023-03-20T19:09:57.569Z,14.35
2023-03-20T19:12:31.776Z,15.45
2023-03-20T19:15:05.675Z,11.13
2023-03-20T19:17:39.159Z,12.18
2023-03-20T19:20:28.133Z,11.23
2023-03-20T19:23:02.903Z,12.00
2023-03-20T19:25:37.390Z,11.27
2023-03-20T19:28:21.619Z,11.85
2023-03-20T19:30:56.898Z,13.32
2023-03-20T19:36:06.548Z,10.77
2023-03-20T19:38:40.108Z,10.25
2023-03-20T19:41:14.861Z,10.43
2023-03-20T19:43:52.850Z,10.52
2023-03-20T19:46:44.052Z,8.95
2023-03-20T19:49:19.753Z,9.60
2023-03-20T19:51:54.734Z,16.10
2023-03-20T19:54:28.531Z,11.40
2023-03-20T19:59:36.012Z,18.93
2023-03-20T20:02:11.815Z,20.23
2023-03-20T20:04:45.733Z,10.30
2023-03-20T20:08:06.370Z,9.55
2023-03-20T20:10:14.290Z,7.25
2023-03-20T20:15:21.382Z,10.05
2023-03-20T20:17:54.738Z,7.40
2023-03-20T20:20:29.980Z,7.05
2023-03-20T20:23:09.987Z,9.68
2023-03-20T20:25:44.449Z,9.07
2023-03-20T20:28:21.524Z,9.00
2023-03-20T20:30:57.441Z,6.63
2023-03-20T20:33:34.352Z,9.23
2023-03-20T20:37:18.352Z,7.75
2023-03-20T20:39:07.191Z,8.10
2023-03-20T20:41:40.537Z,7.78
2023-03-20T20:44:16.389Z,6.63
2023-03-20T20:46:50.658Z,6.78
2023-03-20T20:49:24.231Z,6.25
2023-03-20T20:51:58.371Z,7.35
2023-03-20T20:54:34.886Z,5.78
2023-03-20T20:57:08.472Z,6.60
2023-03-20T20:59:42.222Z,7.05
2023-03-20T21:04:51.029Z,5.60
2023-03-20T21:07:26.776Z,5.78
2023-03-20T21:10:01.569Z,5.47
2023-03-20T21:12:48.351Z,5.65
2023-03-20T21:15:29.541Z,4.90
2023-03-20T21:18:03.029Z,4.82
2023-03-20T21:20:36.460Z,6.13
2023-03-20T21:23:09.815Z,4.88
2023-03-20T21:25:47.394Z,4.00
2023-03-20T21:28:21.431Z,5.13
2023-03-20T21:31:22.681Z,6.70
2023-03-20T21:33:48.238Z,4.50
2023-03-20T21:36:23.458Z,4.50
2023-03-20T21:39:07.717Z,4.20
2023-03-20T21:41:43.887Z,6.63
2023-03-20T21:44:35.909Z,5.32
2023-03-20T21:59:36.998Z,4.00
2023-03-20T22:17:06.434Z,3.33
2023-03-20T22:25:38.890Z,4.30
2023-03-20T22:28:24.384Z,3.05
2023-03-20T22:31:28.620Z,4.82
2023-03-20T22:40:15.216Z,3.85
2023-03-20T22:45:10.525Z,4.67
2023-03-20T22:47:44.116Z,3.22
2023-03-20T22:50:19.009Z,3.08
2023-03-20T22:52:53.754Z,5.55
2023-03-20T22:55:29.229Z,4.20
2023-03-20T22:58:08.110Z,3.00
2023-03-20T23:00:42.483Z,3.40
2023-03-20T23:03:29.615Z,3.08
2023-03-20T23:06:18.771Z,3.55
2023-03-20T23:08:57.050Z,4.88
2023-03-20T23:11:31.848Z,3.22
2023-03-20T23:14:08.691Z,2.47
2023-03-20T23:16:44.880Z,2.67
2023-03-20T23:19:18.464Z,4.25
2023-03-20T23:21:53.179Z,2.70
2023-03-20T23:24:26.547Z,2.58
2023-03-20T23:26:59.956Z,3.05
2023-03-20T23:29:33.258Z,2.70
2023-03-20T23:32:07.107Z,3.83
2023-03-20T23:34:40.499Z,3.83
2023-03-20T23:37:16.464Z,3.13
2023-03-20T23:39:49.835Z,3.00
2023-03-20T23:42:30.254Z,6.55
2023-03-20T23:45:17.175Z,2.70
2023-03-20T23:47:52.767Z,2.55
2023-03-20T23:50:36.603Z,2.67
2023-03-20T23:53:20.582Z,3.20
2023-03-20T23:55:56.723Z,3.47
2023-03-20T23:58:30.561Z,4.28
